BEL368 EBBR-EGGD
Flight info
| Callsign | BEL368 |
|---|---|
| Flight time | N/A |
| Altitude | 36000 |
| Route | DENUT L610 KOPUL Q63 ICTAM |
| Aircraft | A319/M-SDE3FGHIRWY/LB1 |
Departure
| Time | 2026-05-01 14:52 |
|---|---|
| Airport | Brussels Airport (EBBR) |
Arrival
| Time | N/A |
|---|---|
| Airport | Bristol Airport (EGGD) |
| Time | Latitude | Longitude | Altitude | Speed | Heading |
|---|---|---|---|---|---|
| 2026-05-01 14:30 | 50.90134 | 4.48954 | 191 ft | 0 kts | 154° |
| 2026-05-01 14:43 | 50.90139 | 4.48951 | 191 ft | 2 kts | 154° |
| 2026-05-01 14:43 | 50.90153 | 4.48940 | 191 ft | 2 kts | 154° |
| 2026-05-01 14:43 | 50.90167 | 4.48930 | 191 ft | 2 kts | 141° |
| 2026-05-01 14:44 | 50.90177 | 4.48913 | 191 ft | 2 kts | 126° |
| 2026-05-01 14:44 | 50.90188 | 4.48869 | 191 ft | 2 kts | 93° |
| 2026-05-01 14:44 | 50.90187 | 4.48846 | 191 ft | 2 kts | 76° |
| 2026-05-01 14:45 | 50.90182 | 4.48824 | 191 ft | 1 kts | 61° |
| 2026-05-01 14:45 | 50.90180 | 4.48819 | 191 ft | 0 kts | 63° |
| 2026-05-01 14:47 | 50.90182 | 4.48823 | 191 ft | 1 kts | 63° |
| 2026-05-01 14:47 | 50.90203 | 4.48893 | 191 ft | 9 kts | 64° |
| 2026-05-01 14:47 | 50.90234 | 4.48998 | 191 ft | 11 kts | 66° |
| 2026-05-01 14:48 | 50.90307 | 4.49260 | 191 ft | 16 kts | 62° |
| 2026-05-01 14:48 | 50.90360 | 4.49430 | 191 ft | 17 kts | 64° |
| 2026-05-01 14:48 | 50.90547 | 4.49629 | 191 ft | 17 kts | 15° |
| 2026-05-01 14:49 | 50.90801 | 4.49731 | 191 ft | 19 kts | 15° |
| 2026-05-01 14:49 | 50.90979 | 4.49590 | 191 ft | 15 kts | 274° |
| 2026-05-01 14:50 | 50.90982 | 4.49359 | 191 ft | 15 kts | 262° |
| 2026-05-01 14:50 | 50.90964 | 4.49299 | 191 ft | 13 kts | 244° |
| 2026-05-01 14:51 | 50.90805 | 4.48741 | 191 ft | 95 kts | 246° |
| 2026-05-01 14:51 | 50.90008 | 4.45819 | 751 ft | 165 kts | 246° |
| 2026-05-01 14:52 | 50.89570 | 4.42245 | 2124 ft | 175 kts | 279° |
| 2026-05-01 14:52 | 50.90047 | 4.40436 | 2627 ft | 188 kts | 311° |
| 2026-05-01 14:52 | 50.92049 | 4.37335 | 3571 ft | 220 kts | 306° |
| 2026-05-01 14:53 | 50.92971 | 4.35267 | 3992 ft | 243 kts | 303° |
| 2026-05-01 14:53 | 50.93964 | 4.32958 | 4565 ft | 261 kts | 303° |
| 2026-05-01 14:53 | 50.95041 | 4.30477 | 5157 ft | 279 kts | 303° |
| 2026-05-01 14:53 | 50.96136 | 4.27915 | 5758 ft | 290 kts | 298° |
| 2026-05-01 14:54 | 50.97004 | 4.25019 | 6601 ft | 293 kts | 290° |
| 2026-05-01 14:54 | 50.97739 | 4.22068 | 7489 ft | 292 kts | 289° |
| 2026-05-01 14:54 | 50.98474 | 4.19057 | 8300 ft | 295 kts | 289° |
| 2026-05-01 14:54 | 50.99224 | 4.16054 | 9106 ft | 298 kts | 289° |
| 2026-05-01 14:55 | 51.00002 | 4.13002 | 9887 ft | 302 kts | 290° |
| 2026-05-01 14:55 | 51.00809 | 4.09900 | 10627 ft | 306 kts | 290° |
| 2026-05-01 14:55 | 51.01642 | 4.06720 | 11080 ft | 319 kts | 290° |
| 2026-05-01 14:55 | 51.02506 | 4.03407 | 11602 ft | 331 kts | 290° |
| 2026-05-01 14:56 | 51.03380 | 4.00060 | 12338 ft | 333 kts | 290° |
| 2026-05-01 14:56 | 51.04264 | 3.96674 | 13040 ft | 336 kts | 290° |
| 2026-05-01 14:56 | 51.05167 | 3.93213 | 13742 ft | 341 kts | 290° |
| 2026-05-01 14:56 | 51.06072 | 3.89743 | 14451 ft | 344 kts | 290° |
| 2026-05-01 14:57 | 51.06997 | 3.86199 | 15156 ft | 349 kts | 290° |
| 2026-05-01 14:57 | 51.08856 | 3.79064 | 16607 ft | 357 kts | 290° |
| 2026-05-01 14:57 | 51.09806 | 3.75406 | 17326 ft | 360 kts | 290° |
| 2026-05-01 14:58 | 51.10765 | 3.71713 | 18008 ft | 362 kts | 290° |
| 2026-05-01 14:58 | 51.11731 | 3.67979 | 18652 ft | 367 kts | 290° |
| 2026-05-01 14:58 | 51.12702 | 3.64219 | 19295 ft | 369 kts | 290° |
| 2026-05-01 14:58 | 51.13678 | 3.60426 | 19899 ft | 374 kts | 290° |
| 2026-05-01 14:59 | 51.14661 | 3.56604 | 20531 ft | 377 kts | 290° |
| 2026-05-01 14:59 | 51.15655 | 3.52727 | 21164 ft | 380 kts | 290° |
| 2026-05-01 14:59 | 51.16653 | 3.48836 | 21789 ft | 384 kts | 290° |
| 2026-05-01 14:59 | 51.17668 | 3.44867 | 22400 ft | 387 kts | 291° |
| 2026-05-01 15:00 | 51.19698 | 3.36921 | 23580 ft | 393 kts | 291° |
| 2026-05-01 15:00 | 51.20719 | 3.32915 | 24155 ft | 395 kts | 290° |
| 2026-05-01 15:00 | 51.21766 | 3.28808 | 24728 ft | 398 kts | 290° |
| 2026-05-01 15:01 | 51.22820 | 3.24661 | 25284 ft | 401 kts | 290° |
| 2026-05-01 15:01 | 51.23861 | 3.20558 | 25818 ft | 404 kts | 290° |
| 2026-05-01 15:01 | 51.24918 | 3.16379 | 26335 ft | 406 kts | 290° |
| 2026-05-01 15:01 | 51.25991 | 3.12135 | 26843 ft | 409 kts | 290° |
| 2026-05-01 15:02 | 51.27062 | 3.07897 | 27345 ft | 412 kts | 290° |
| 2026-05-01 15:02 | 51.27408 | 3.06524 | 27508 ft | 413 kts | 290° |
| 2026-05-01 15:02 | 51.29205 | 2.99377 | 28333 ft | 417 kts | 290° |
| 2026-05-01 15:02 | 51.30278 | 2.95091 | 28794 ft | 420 kts | 290° |
| 2026-05-01 15:03 | 51.31362 | 2.90753 | 29252 ft | 422 kts | 290° |
| 2026-05-01 15:03 | 51.32449 | 2.86391 | 29722 ft | 424 kts | 290° |
| 2026-05-01 15:03 | 51.33534 | 2.82035 | 30173 ft | 426 kts | 290° |
| 2026-05-01 15:03 | 51.34560 | 2.77574 | 30616 ft | 428 kts | 287° |
| 2026-05-01 15:04 | 51.35414 | 2.73035 | 31070 ft | 429 kts | 283° |
| 2026-05-01 15:04 | 51.36092 | 2.68424 | 31582 ft | 428 kts | 280° |
| 2026-05-01 15:04 | 51.36675 | 2.63757 | 32155 ft | 426 kts | 279° |
| 2026-05-01 15:04 | 51.37242 | 2.59090 | 32680 ft | 424 kts | 279° |
| 2026-05-01 15:05 | 51.37793 | 2.54528 | 33163 ft | 422 kts | 279° |
| 2026-05-01 15:05 | 51.38351 | 2.49926 | 33635 ft | 421 kts | 279° |
| 2026-05-01 15:05 | 51.38913 | 2.45278 | 34109 ft | 420 kts | 279° |
| 2026-05-01 15:05 | 51.39465 | 2.40711 | 34577 ft | 419 kts | 279° |
| 2026-05-01 15:06 | 51.40017 | 2.36135 | 35000 ft | 419 kts | 279° |
| 2026-05-01 15:06 | 51.40575 | 2.31491 | 35390 ft | 420 kts | 278° |
| 2026-05-01 15:06 | 51.41122 | 2.26930 | 35746 ft | 421 kts | 278° |
| 2026-05-01 15:06 | 51.41680 | 2.22336 | 36056 ft | 422 kts | 279° |
| 2026-05-01 15:07 | 51.42242 | 2.17751 | 36232 ft | 424 kts | 279° |
| 2026-05-01 15:07 | 51.43373 | 2.08487 | 36302 ft | 423 kts | 279° |
| 2026-05-01 15:08 | 51.44487 | 1.99260 | 36243 ft | 422 kts | 278° |
| 2026-05-01 15:08 | 51.45575 | 1.90046 | 36219 ft | 422 kts | 278° |
| 2026-05-01 15:09 | 51.46657 | 1.80785 | 36177 ft | 422 kts | 278° |
| 2026-05-01 15:09 | 51.47716 | 1.71607 | 36167 ft | 422 kts | 278° |
| 2026-05-01 15:10 | 51.48770 | 1.62386 | 36174 ft | 422 kts | 278° |
| 2026-05-01 15:10 | 51.50354 | 1.48479 | 36176 ft | 422 kts | 278° |
| 2026-05-01 15:11 | 51.51923 | 1.34523 | 36178 ft | 423 kts | 277° |
| 2026-05-01 15:12 | 51.52948 | 1.25288 | 36177 ft | 422 kts | 277° |
| 2026-05-01 15:12 | 51.54097 | 1.11326 | 36176 ft | 420 kts | 270° |
| 2026-05-01 15:14 | 51.53908 | 0.87974 | 36171 ft | 419 kts | 265° |
| 2026-05-01 15:14 | 51.53708 | 0.74050 | 36172 ft | 419 kts | 265° |
| 2026-05-01 15:15 | 51.53418 | 0.55451 | 36171 ft | 418 kts | 265° |
| 2026-05-01 15:16 | 51.53110 | 0.36820 | 36170 ft | 418 kts | 266° |
| 2026-05-01 15:17 | 51.53144 | 0.27472 | 36053 ft | 419 kts | 266° |
| 2026-05-01 15:18 | 51.53205 | 0.13570 | 35398 ft | 412 kts | 266° |
| 2026-05-01 15:18 | 51.53215 | 0.08992 | 35175 ft | 409 kts | 266° |
| 2026-05-01 15:19 | 51.53228 | -0.04632 | 34223 ft | 408 kts | 266° |
| 2026-05-01 15:19 | 51.53225 | -0.13773 | 33112 ft | 409 kts | 266° |
| 2026-05-01 15:19 | 51.53220 | -0.18339 | 32444 ft | 410 kts | 266° |
| 2026-05-01 15:20 | 51.53205 | -0.27396 | 31170 ft | 410 kts | 266° |
| 2026-05-01 15:20 | 51.53196 | -0.32011 | 30553 ft | 408 kts | 266° |
| 2026-05-01 15:20 | 51.53186 | -0.36526 | 30114 ft | 409 kts | 266° |
| 2026-05-01 15:21 | 51.53175 | -0.41062 | 29669 ft | 408 kts | 266° |
| 2026-05-01 15:21 | 51.53161 | -0.45638 | 29217 ft | 406 kts | 266° |
| 2026-05-01 15:21 | 51.53147 | -0.50118 | 28782 ft | 404 kts | 266° |
| 2026-05-01 15:21 | 51.53130 | -0.54611 | 28356 ft | 400 kts | 266° |
| 2026-05-01 15:22 | 51.53094 | -0.63441 | 27487 ft | 395 kts | 266° |
| 2026-05-01 15:22 | 51.53073 | -0.67852 | 27042 ft | 391 kts | 265° |
| 2026-05-01 15:22 | 51.53050 | -0.72189 | 26601 ft | 388 kts | 265° |
| 2026-05-01 15:23 | 51.53025 | -0.76490 | 26165 ft | 385 kts | 265° |
| 2026-05-01 15:23 | 51.52998 | -0.80779 | 25730 ft | 382 kts | 265° |
| 2026-05-01 15:23 | 51.52970 | -0.85014 | 25300 ft | 380 kts | 265° |
| 2026-05-01 15:23 | 51.52940 | -0.89239 | 24868 ft | 377 kts | 265° |
| 2026-05-01 15:24 | 51.52908 | -0.93444 | 24439 ft | 374 kts | 265° |
| 2026-05-01 15:24 | 51.52876 | -0.97588 | 24014 ft | 372 kts | 265° |
| 2026-05-01 15:24 | 51.52843 | -1.01680 | 23599 ft | 369 kts | 265° |
| 2026-05-01 15:24 | 51.52808 | -1.05783 | 23184 ft | 367 kts | 265° |
| 2026-05-01 15:25 | 51.52773 | -1.09844 | 22769 ft | 364 kts | 265° |
| 2026-05-01 15:25 | 51.52780 | -1.13893 | 22351 ft | 363 kts | 268° |
| 2026-05-01 15:25 | 51.52975 | -1.17918 | 21977 ft | 364 kts | 273° |
| 2026-05-01 15:25 | 51.53373 | -1.21959 | 21913 ft | 369 kts | 276° |
| 2026-05-01 15:26 | 51.53846 | -1.25988 | 21837 ft | 371 kts | 277° |
| 2026-05-01 15:26 | 51.54329 | -1.30017 | 21510 ft | 370 kts | 277° |
| 2026-05-01 15:26 | 51.54813 | -1.34061 | 21133 ft | 368 kts | 277° |
| 2026-05-01 15:26 | 51.55288 | -1.38052 | 20747 ft | 365 kts | 277° |
| 2026-05-01 15:27 | 51.55758 | -1.42034 | 20348 ft | 363 kts | 277° |
| 2026-05-01 15:27 | 51.56223 | -1.46001 | 19940 ft | 361 kts | 277° |
| 2026-05-01 15:27 | 51.56684 | -1.49958 | 19514 ft | 360 kts | 277° |
| 2026-05-01 15:28 | 51.57588 | -1.57763 | 18669 ft | 355 kts | 276° |
| 2026-05-01 15:28 | 51.58040 | -1.61674 | 18260 ft | 352 kts | 276° |
| 2026-05-01 15:28 | 51.58467 | -1.65540 | 17867 ft | 348 kts | 274° |
| 2026-05-01 15:29 | 51.59053 | -1.73175 | 17101 ft | 342 kts | 272° |
| 2026-05-01 15:29 | 51.59322 | -1.76927 | 16734 ft | 339 kts | 272° |
| 2026-05-01 15:29 | 51.59856 | -1.84388 | 16026 ft | 333 kts | 272° |
| 2026-05-01 15:30 | 51.59353 | -1.91438 | 15252 ft | 316 kts | 241° |
| 2026-05-01 15:31 | 51.54784 | -2.02984 | 13759 ft | 300 kts | 234° |
| 2026-05-01 15:31 | 51.52725 | -2.08554 | 13508 ft | 280 kts | 241° |
| 2026-05-01 15:32 | 51.51299 | -2.14348 | 12705 ft | 281 kts | 246° |
| 2026-05-01 15:32 | 51.49981 | -2.20216 | 11938 ft | 277 kts | 247° |
| 2026-05-01 15:33 | 51.48052 | -2.28743 | 10918 ft | 266 kts | 247° |
| 2026-05-01 15:34 | 51.46178 | -2.36964 | 9946 ft | 259 kts | 246° |